Grovertown, Indiana
Current Conditions -  °F | °C
As of 10:15 AM on Tuesday 21 Oct 2014 (Local Time) from KOXI Reporting Station
Overcast Overcast  
Wind Chill: 45°   Ceiling: 1600
Heat Index: 49°   Visibility: 10mi
Dew Point: 45°   Wind: 12mph
Humidity: 86%   Direction: 340°NNW
Pressure: 30.1"   Gusts: 16mph
Location:  41.37°N, 86.5°W
Report Text: KOXI 211515Z AUTO 34010G14KT 10SM BKN016 BKN034 OVC042 10/07 A3010 RMK AO1 T00960074
Loading
Personal Weather Stations






























Interactive Weather Map
Tropical Storm Tracking
New forecast layout! Learn more

10-Day Weather Forecast

Advertisements
Track Severe Weather on mobile